Time;durP1;ratioP1;P1;durP2;ratioP2;P2;SDS_P1;SDS_P2;PMS_P1;PMS_P2;Temp;Humidity;BMP_temperature;BMP_pressure;BME280_temperature;BME280_humidity;BME280_pressure;Samples;Min_cycle;Max_cycle;Signal;HPM_P1;HPM_P2
2023/04/05 00:01:06;;;;;;;127.00;33.97;;;;;;;-2.43;73.33;100760.09;4212249;28;25074;-67
2023/04/05 00:03:34;;;;;;;119.07;31.67;;;;;;;-2.47;73.37;100753.16;4212253;28;20232;-65
2023/04/05 00:06:01;;;;;;;115.07;30.20;;;;;;;-2.48;73.55;100756.72;4233873;28;20534;-68
2023/04/05 00:08:28;;;;;;;105.10;27.43;;;;;;;-2.56;74.19;100754.34;4208240;28;20224;-65
2023/04/05 00:10:55;;;;;;;80.50;25.03;;;;;;;-2.58;73.92;100760.63;4212271;28;20232;-66
2023/04/05 00:13:21;;;;;;;90.60;26.17;;;;;;;-2.47;73.90;100762.91;4201232;28;20302;-66
2023/04/05 00:15:48;;;;;;;91.57;25.93;;;;;;;-2.50;73.96;100755.94;4220200;28;20243;-67
2023/04/05 00:18:21;;;;;;;86.60;25.93;;;;;;;-2.53;74.09;100760.47;4213552;28;20711;-67
2023/04/05 00:20:48;;;;;;;80.30;22.47;;;;;;;-2.60;74.04;100751.88;4216991;28;20627;-66
2023/04/05 00:23:16;;;;;;;72.53;22.07;;;;;;;-2.69;74.70;100749.53;4217041;28;21929;-66
2023/04/05 00:25:44;;;;;;;77.00;22.80;;;;;;;-2.65;74.43;100743.22;4219687;28;22805;-66
2023/04/05 00:28:11;;;;;;;92.33;26.60;;;;;;;-2.58;74.14;100742.94;4224811;28;21817;-66
2023/04/05 00:30:38;;;;;;;116.93;28.80;;;;;;;-2.66;74.36;100736.19;4227670;28;20242;-65
2023/04/05 00:33:05;;;;;;;110.53;28.73;;;;;;;-2.69;74.35;100731.88;4201935;28;20235;-65
2023/04/05 00:35:32;;;;;;;111.57;29.23;;;;;;;-2.72;74.81;100735.47;4224672;28;20311;-65
2023/04/05 00:37:58;;;;;;;107.73;27.53;;;;;;;-2.72;74.94;100729.31;4212814;28;22069;-65
2023/04/05 00:40:25;;;;;;;114.17;27.87;;;;;;;-2.69;74.44;100733.63;4209026;28;23542;-65
2023/04/05 00:42:51;;;;;;;101.73;28.70;;;;;;;-2.69;74.65;100729.22;4223747;28;22963;-66
2023/04/05 00:45:18;;;;;;;106.07;27.40;;;;;;;-2.79;75.13;100728.66;4221630;28;20305;-66
2023/04/05 00:47:45;;;;;;;88.13;26.13;;;;;;;-2.86;76.00;100737.75;4219034;28;20793;-66
2023/04/05 00:50:12;;;;;;;50.97;17.97;;;;;;;-2.92;76.08;100725.63;4218884;28;23550;-66
2023/04/05 00:52:42;;;;;;;65.33;20.53;;;;;;;-2.87;75.96;100731.59;4218824;28;21222;-65
2023/04/05 00:55:09;;;;;;;77.00;23.37;;;;;;;-2.77;75.57;100725.97;4218162;28;20236;-66
2023/04/05 00:57:40;;;;;;;94.37;24.97;;;;;;;-2.81;75.65;100724.34;4214042;28;21069;-66
2023/04/05 01:00:10;;;;;;;54.20;17.90;;;;;;;-2.89;76.57;100724.63;4213056;28;21318;-66
2023/04/05 01:02:46;;;;;;;36.00;13.60;;;;;;;-2.83;76.19;100716.47;4221260;28;23117;-67
2023/04/05 01:05:20;;;;;;;64.97;20.87;;;;;;;-2.67;75.69;100713.25;4221312;28;20444;-66
2023/04/05 01:07:55;;;;;;;62.73;19.27;;;;;;;-2.79;75.99;100712.78;4222215;28;21316;-65
2023/04/05 01:10:30;;;;;;;51.87;18.23;;;;;;;-2.86;76.04;100711.25;4213194;28;20568;-66
2023/04/05 01:12:57;;;;;;;34.57;13.63;;;;;;;-2.97;76.32;100714.28;4220353;28;22592;-70
2023/04/05 01:15:24;;;;;;;30.20;13.00;;;;;;;-2.96;76.92;100710.72;4222696;28;20239;-68
2023/04/05 01:17:53;;;;;;;44.80;14.77;;;;;;;-2.90;76.67;100701.72;4210765;28;20301;-66
2023/04/05 01:20:21;;;;;;;34.73;13.30;;;;;;;-2.91;76.46;100710.56;4220348;28;20391;-66
2023/04/05 01:23:00;;;;;;;35.20;12.10;;;;;;;-2.90;76.54;100699.91;4224200;28;20686;-65
2023/04/05 01:25:27;;;;;;;27.63;12.20;;;;;;;-2.90;76.56;100701.72;4219961;28;20916;-65
2023/04/05 01:27:56;;;;;;;28.07;10.70;;;;;;;-2.94;76.91;100706.25;4230240;28;20235;-66
2023/04/05 01:30:26;;;;;;;26.27;11.20;;;;;;;-2.93;76.98;100701.81;4229982;28;20692;-67
2023/04/05 01:33:11;;;;;;;28.30;11.80;;;;;;;-2.84;77.60;100703.28;4219428;28;20400;-66
2023/04/05 01:35:47;;;;;;;30.93;12.73;;;;;;;-2.87;77.39;100699.81;4228611;28;20947;-67
2023/04/05 01:38:17;;;;;;;34.60;13.13;;;;;;;-2.80;77.00;100705.75;4220361;28;21750;-66
2023/04/05 01:40:44;;;;;;;30.50;12.87;;;;;;;-2.82;77.13;100702.28;4215415;28;23712;-67
2023/04/05 01:43:15;;;;;;;31.87;13.97;;;;;;;-2.89;77.23;100699.00;4270516;28;20395;-67
2023/04/05 01:45:43;;;;;;;31.27;13.33;;;;;;;-2.84;77.27;100705.94;4260752;28;23678;-68
2023/04/05 01:48:10;;;;;;;32.57;13.40;;;;;;;-2.81;76.94;100711.97;4214082;28;20768;-67
2023/04/05 01:50:37;;;;;;;37.17;14.53;;;;;;;-2.83;76.86;100710.31;4227901;28;20237;-66
2023/04/05 01:53:05;;;;;;;32.97;13.70;;;;;;;-2.89;77.21;100714.88;4229879;28;20509;-65
2023/04/05 01:55:32;;;;;;;29.63;12.10;;;;;;;-2.98;77.62;100707.25;4222229;28;21093;-67
2023/04/05 01:57:58;;;;;;;37.03;13.57;;;;;;;-2.98;77.24;100707.25;4211314;28;20597;-66
2023/04/05 02:00:26;;;;;;;34.63;14.00;;;;;;;-3.03;77.96;100703.91;4215088;28;21343;-67
2023/04/05 02:02:53;;;;;;;33.67;13.80;;;;;;;-3.03;78.14;100710.09;4225332;28;20280;-66
2023/04/05 02:05:19;;;;;;;30.87;12.70;;;;;;;-2.99;78.01;100705.56;4228499;28;21524;-65
2023/04/05 02:07:46;;;;;;;30.47;12.33;;;;;;;-2.98;77.67;100709.06;4229446;28;20430;-66
2023/04/05 02:10:13;;;;;;;32.90;12.83;;;;;;;-3.02;77.93;100706.50;4227742;28;20829;-65
2023/04/05 02:12:40;;;;;;;30.73;13.10;;;;;;;-3.06;78.19;100710.19;4212400;28;25747;-65
2023/04/05 02:15:07;;;;;;;35.23;13.27;;;;;;;-3.04;78.09;100708.38;4228363;28;21279;-65
2023/04/05 02:17:37;;;;;;;32.47;12.27;;;;;;;-2.93;77.91;100712.41;4213072;28;20243;-65
2023/04/05 02:20:09;;;;;;;29.87;12.13;;;;;;;-2.98;78.15;100707.25;4226367;28;20594;-65
2023/04/05 02:22:36;;;;;;;32.47;13.57;;;;;;;-3.04;78.59;100715.44;4233810;28;20240;-65
2023/04/05 02:25:03;;;;;;;29.37;12.70;;;;;;;-3.04;78.78;100721.59;4226383;28;20247;-66
2023/04/05 02:27:31;;;;;;;37.60;14.60;;;;;;;-3.02;78.97;100717.09;4222438;28;20862;-65
2023/04/05 02:29:57;;;;;;;30.73;12.50;;;;;;;-2.99;79.25;100712.63;4211504;28;20388;-66
2023/04/05 02:32:24;;;;;;;28.30;13.17;;;;;;;-2.98;78.59;100714.34;4212252;28;20246;-66
2023/04/05 02:34:51;;;;;;;31.77;13.50;;;;;;;-2.97;78.74;100719.59;4218598;28;21734;-66
2023/04/05 02:37:19;;;;;;;32.03;14.90;;;;;;;-3.09;78.89;100709.44;4221746;28;21081;-64
2023/04/05 02:39:45;;;;;;;31.80;13.87;;;;;;;-3.11;79.15;100703.31;4210099;28;20254;-65
2023/04/05 02:42:12;;;;;;;32.03;14.00;;;;;;;-3.04;78.79;100711.00;4217785;28;20543;-67
2023/04/05 02:44:39;;;;;;;31.93;13.37;;;;;;;-3.04;78.61;100710.13;4229944;28;21857;-65
2023/04/05 02:47:05;;;;;;;34.90;13.47;;;;;;;-3.02;78.21;100711.81;4216506;28;20418;-67
2023/04/05 02:49:32;;;;;;;33.40;14.30;;;;;;;-3.06;78.50;100714.63;4222289;28;20227;-67
2023/04/05 02:51:59;;;;;;;33.17;14.27;;;;;;;-3.06;78.50;100710.19;4224209;28;20232;-67
2023/04/05 02:54:25;;;;;;;33.53;13.93;;;;;;;-3.20;79.17;100709.81;4217019;28;20231;-67
2023/04/05 02:56:53;;;;;;;33.67;13.73;;;;;;;-3.09;78.93;100707.63;4226515;28;21337;-66
2023/04/05 02:59:20;;;;;;;38.27;13.90;;;;;;;-3.09;78.83;100705.00;4224358;28;20238;-66
2023/04/05 03:01:46;;;;;;;35.37;14.40;;;;;;;-2.99;78.99;100702.03;4224454;28;20238;-67
2023/04/05 03:04:16;;;;;;;34.47;14.90;;;;;;;-3.00;79.34;100702.94;4225706;28;20258;-67
2023/04/05 03:06:45;;;;;;;33.27;13.73;;;;;;;-2.95;79.31;100701.00;4226092;28;20243;-65
2023/04/05 03:09:13;;;;;;;38.00;15.17;;;;;;;-2.86;79.33;100708.59;4204481;28;20269;-65
2023/04/05 03:11:39;;;;;;;37.07;14.43;;;;;;;-2.88;79.82;100707.81;4220132;28;21531;-67
2023/04/05 03:14:06;;;;;;;38.27;15.03;;;;;;;-2.86;79.79;100708.59;4219854;28;20254;-65
2023/04/05 03:16:33;;;;;;;33.80;14.27;;;;;;;-2.74;79.38;100704.66;4218574;28;20332;-65
2023/04/05 03:19:01;;;;;;;40.87;14.90;;;;;;;-2.77;79.84;100705.63;4226345;28;21045;-66
2023/04/05 03:21:28;;;;;;;31.07;13.67;;;;;;;-2.80;79.89;100711.06;4227880;28;20526;-65
2023/04/05 03:23:55;;;;;;;38.97;14.83;;;;;;;-2.65;80.00;100703.47;4225666;28;20624;-67
2023/04/05 03:26:22;;;;;;;35.10;13.97;;;;;;;-2.57;78.95;100704.91;4230874;28;20627;-65
2023/04/05 03:28:48;;;;;;;33.47;14.00;;;;;;;-2.67;79.60;100713.25;4218913;28;20250;-67
2023/04/05 03:31:16;;;;;;;34.17;14.10;;;;;;;-2.63;80.01;100714.84;4230408;28;20467;-66
2023/04/05 03:33:45;;;;;;;36.33;13.63;;;;;;;-2.50;79.83;100709.97;4194588;28;20321;-66
2023/04/05 03:36:15;;;;;;;36.33;13.70;;;;;;;-2.47;79.55;100707.22;4222682;28;20351;-65
2023/04/05 03:38:44;;;;;;;30.03;13.70;;;;;;;-2.51;79.80;100708.25;4225208;28;26037;-66
2023/04/05 03:41:11;;;;;;;33.83;13.37;;;;;;;-2.48;79.35;100701.03;4227696;28;20235;-67
2023/04/05 03:43:37;;;;;;;30.90;12.60;;;;;;;-2.37;79.48;100710.38;4223610;28;20629;-65
2023/04/05 03:46:04;;;;;;;38.33;13.63;;;;;;;-2.47;80.07;100716.03;4228133;28;20243;-67
2023/04/05 03:48:30;;;;;;;31.60;14.07;;;;;;;-2.48;79.92;100703.69;4219547;28;20831;-67
2023/04/05 03:50:57;;;;;;;34.03;13.37;;;;;;;-2.34;79.75;100708.50;4233630;28;20286;-67
2023/04/05 03:53:25;;;;;;;37.97;13.70;;;;;;;-2.35;79.78;100695.28;4223971;28;23087;-68
2023/04/05 03:55:53;;;;;;;33.97;13.40;;;;;;;-2.21;79.54;100708.00;4227234;28;20412;-65
2023/04/05 03:58:20;;;;;;;31.73;13.77;;;;;;;-2.08;79.58;100714.59;4213236;28;21110;-67
2023/04/05 04:00:46;;;;;;;30.77;12.27;;;;;;;-2.03;79.24;100704.66;4212869;28;21042;-65
2023/04/05 04:03:13;;;;;;;36.70;13.27;;;;;;;-2.09;79.70;100707.56;4233592;28;20241;-66
2023/04/05 04:05:40;;;;;;;37.97;14.33;;;;;;;-2.02;79.57;100716.13;4224544;28;20290;-65
2023/04/05 04:08:08;;;;;;;35.93;14.13;;;;;;;-2.03;79.75;100715.25;4211620;28;20278;-68
2023/04/05 04:10:35;;;;;;;46.77;16.80;;;;;;;-2.00;79.46;100712.47;4223343;28;20458;-66
2023/04/05 04:13:03;;;;;;;37.60;15.03;;;;;;;-2.04;79.59;100710.88;4229249;28;20613;-65
2023/04/05 04:15:30;;;;;;;46.40;16.67;;;;;;;-2.04;79.19;100715.34;4220761;28;20265;-66
2023/04/05 04:17:57;;;;;;;48.10;16.73;;;;;;;-1.98;78.89;100717.75;4216570;28;20242;-66
2023/04/05 04:20:23;;;;;;;49.73;17.13;;;;;;;-1.91;78.88;100720.06;4219893;28;23477;-65
2023/04/05 04:22:52;;;;;;;52.60;18.97;;;;;;;-2.21;79.75;100719.50;4223307;28;20648;-65
2023/04/05 04:25:19;;;;;;;61.90;19.80;;;;;;;-2.18;80.04;100719.34;4221294;28;20497;-67
2023/04/05 04:27:46;;;;;;;52.60;19.73;;;;;;;-2.05;80.01;100725.06;4218324;28;20241;-64
2023/04/05 04:30:14;;;;;;;67.83;22.67;;;;;;;-1.95;80.10;100721.13;4226278;28;21147;-66
2023/04/05 04:32:54;;;;;;;51.67;20.57;;;;;;;-1.84;80.26;100719.81;4217565;28;22050;-64
2023/04/05 04:35:26;;;;;;;61.07;24.87;;;;;;;-1.74;79.37;100725.66;4209460;28;20309;-65
2023/04/05 04:37:58;;;;;;;57.07;22.23;;;;;;;-1.68;79.37;100720.94;4224147;28;21387;-66
2023/04/05 04:40:39;;;;;;;65.23;24.07;;;;;;;-1.96;80.04;100726.47;4201390;28;20741;-67
2023/04/05 04:43:15;;;;;;;56.67;21.63;;;;;;;-1.95;80.00;100721.13;4222904;28;20409;-68
2023/04/05 04:45:47;;;;;;;58.40;22.67;;;;;;;-1.78;80.13;100717.81;4226853;28;20228;-67
2023/04/05 04:48:15;;;;;;;57.77;21.57;;;;;;;-1.67;79.60;100716.53;4222814;28;20744;-65
2023/04/05 04:50:45;;;;;;;54.93;20.60;;;;;;;-1.55;79.56;100717.81;4231240;28;21934;-67
2023/04/05 04:53:12;;;;;;;63.57;22.60;;;;;;;-1.71;79.28;100718.44;4202402;28;20430;-67
2023/04/05 04:55:41;;;;;;;60.93;21.90;;;;;;;-1.52;79.39;100712.34;4217768;28;20243;-65
2023/04/05 04:58:09;;;;;;;57.53;21.73;;;;;;;-1.44;78.90;100712.91;4240311;28;20629;-68
2023/04/05 05:00:43;;;;;;;60.83;22.07;;;;;;;-1.57;78.62;100714.34;4255685;28;20566;-66
2023/04/05 05:03:11;;;;;;;59.93;21.40;;;;;;;-1.48;78.57;100713.97;4259703;28;20274;-66
2023/04/05 05:05:47;;;;;;;62.07;23.40;;;;;;;-1.62;78.98;100723.34;4280433;28;20231;-66
2023/04/05 05:08:14;;;;;;;58.10;21.23;;;;;;;-1.61;78.37;100721.56;4262676;28;22654;-67
2023/04/05 05:10:43;;;;;;;54.27;21.20;;;;;;;-1.47;78.13;100724.53;4276956;28;21734;-67
2023/04/05 05:13:10;;;;;;;61.47;21.87;;;;;;;-1.50;78.01;100724.63;4245145;28;20290;-64
2023/04/05 05:15:40;;;;;;;64.53;22.57;;;;;;;-1.59;77.79;100730.34;4254025;28;21176;-64
2023/04/05 05:18:07;;;;;;;55.83;20.80;;;;;;;-1.45;77.55;100728.00;4248698;28;20257;-65
2023/04/05 05:20:34;;;;;;;60.87;22.43;;;;;;;-1.48;77.26;100722.78;4243092;28;20230;-67
2023/04/05 05:23:02;;;;;;;55.97;21.17;;;;;;;-1.22;76.53;100723.50;4233839;28;20261;-67
2023/04/05 05:25:30;;;;;;;51.40;21.03;;;;;;;-1.41;76.98;100733.16;4227999;28;20231;-64
2023/04/05 05:27:57;;;;;;;57.63;22.57;;;;;;;-1.38;77.04;100730.38;4228449;28;20393;-64
2023/04/05 05:30:23;;;;;;;77.67;24.27;;;;;;;-1.42;77.36;100726.13;4226381;28;20425;-62
2023/04/05 05:32:51;;;;;;;57.37;22.37;;;;;;;-1.60;78.55;100729.47;4235510;28;20604;-64
2023/04/05 05:35:18;;;;;;;64.70;23.73;;;;;;;-1.71;78.46;100734.38;4231062;28;21174;-62
2023/04/05 05:37:44;;;;;;;61.97;23.77;;;;;;;-1.85;79.81;100744.66;4230811;28;21700;-61
2023/04/05 05:40:12;;;;;;;58.90;22.37;;;;;;;-1.51;78.61;100738.84;4230701;28;20416;-62
2023/04/05 05:42:38;;;;;;;59.60;22.90;;;;;;;-1.22;76.77;100742.09;4226199;28;20374;-61
2023/04/05 05:45:05;;;;;;;60.23;21.00;;;;;;;-1.39;77.31;100739.28;4221344;28;21489;-62
2023/04/05 05:47:32;;;;;;;65.33;22.37;;;;;;;-1.53;77.82;100739.84;4229435;28;20299;-63
2023/04/05 05:49:59;;;;;;;59.00;24.37;;;;;;;-1.68;77.84;100731.56;4226095;28;21446;-63
2023/04/05 05:52:25;;;;;;;63.07;23.00;;;;;;;-1.49;77.73;100752.94;4226233;28;21921;-64
2023/04/05 05:54:52;;;;;;;59.23;22.13;;;;;;;-1.61;77.79;100742.81;4228593;28;21032;-62
2023/04/05 05:57:19;;;;;;;53.73;20.60;;;;;;;-1.72;78.48;100745.91;4225388;28;20230;-61
2023/04/05 05:59:45;;;;;;;58.07;21.93;;;;;;;-1.82;79.07;100755.13;4212819;28;20236;-64
2023/04/05 06:02:12;;;;;;;60.43;23.23;;;;;;;-1.69;78.90;100758.19;4220451;28;20247;-63
2023/04/05 06:04:39;;;;;;;50.67;20.30;;;;;;;-1.48;77.76;100756.47;4224169;28;20231;-64
2023/04/05 06:07:06;;;;;;;49.13;20.43;;;;;;;-1.52;78.57;100757.50;4249343;28;21872;-65
2023/04/05 06:09:34;;;;;;;54.47;21.43;;;;;;;-1.55;78.14;100749.69;4225102;28;21226;-63
2023/04/05 06:12:00;;;;;;;65.80;22.37;;;;;;;-1.29;77.86;100756.56;4215964;28;20461;-66
2023/04/05 06:14:31;;;;;;;57.73;22.43;;;;;;;-1.24;77.26;100757.22;4221979;28;20242;-62
2023/04/05 06:16:57;;;;;;;60.50;22.23;;;;;;;-1.31;77.82;100753.97;4232600;28;20850;-63
2023/04/05 06:19:24;;;;;;;57.17;23.87;;;;;;;-1.26;78.08;100755.56;4225226;28;22809;-64
2023/04/05 06:21:50;;;;;;;66.03;23.50;;;;;;;-1.21;77.11;100757.09;4219972;28;20401;-64
2023/04/05 06:24:17;;;;;;;68.83;22.97;;;;;;;-1.18;77.11;100761.44;4227717;28;23556;-66
2023/04/05 06:26:44;;;;;;;70.83;23.23;;;;;;;-1.30;76.26;100757.50;4225483;28;20243;-63
2023/04/05 06:29:11;;;;;;;53.03;22.03;;;;;;;-1.43;77.36;100759.78;4234588;28;20798;-63
2023/04/05 06:31:37;;;;;;;64.33;24.20;;;;;;;-1.38;76.97;100757.78;4226325;28;20231;-64
2023/04/05 06:34:04;;;;;;;61.73;22.37;;;;;;;-1.42;76.25;100761.50;4223602;28;23502;-65
2023/04/05 06:36:32;;;;;;;59.47;23.37;;;;;;;-1.23;75.86;100766.06;4231789;28;20227;-63
2023/04/05 06:39:00;;;;;;;54.97;23.10;;;;;;;-1.11;75.15;100770.88;4231670;28;20238;-66
2023/04/05 06:41:27;;;;;;;57.53;22.43;;;;;;;-1.17;75.04;100777.31;4224913;28;24107;-66
2023/04/05 06:43:54;;;;;;;50.40;20.70;;;;;;;-1.06;75.26;100768.88;4232565;28;20618;-65
2023/04/05 06:46:21;;;;;;;53.80;20.67;;;;;;;-1.09;75.03;100761.03;4212058;28;20574;-67
2023/04/05 06:48:49;;;;;;;55.87;19.70;;;;;;;-0.67;73.90;100773.41;4206370;28;20414;-64
2023/04/05 06:51:16;;;;;;;60.97;20.70;;;;;;;-0.68;72.86;100778.81;4216367;28;21735;-66
2023/04/05 06:53:42;;;;;;;51.07;19.17;;;;;;;-0.56;73.25;100778.25;4220091;28;20510;-66
2023/04/05 06:56:09;;;;;;;53.13;19.50;;;;;;;-0.74;72.67;100773.75;4221859;28;21835;-64
2023/04/05 06:58:36;;;;;;;50.40;18.43;;;;;;;-0.71;73.25;100768.28;4207246;28;20278;-66
2023/04/05 07:01:03;;;;;;;45.93;17.60;;;;;;;-0.74;72.82;100769.31;4226532;28;21807;-64
2023/04/05 07:03:31;;;;;;;48.80;18.87;;;;;;;-0.92;73.52;100776.28;4200894;28;20261;-67
2023/04/05 07:05:58;;;;;;;46.17;19.37;;;;;;;-1.00;74.62;100771.28;4227846;28;20246;-67
2023/04/05 07:08:26;;;;;;;56.57;19.33;;;;;;;-0.58;73.23;100772.13;4217768;28;21189;-65
2023/04/05 07:10:53;;;;;;;41.37;17.47;;;;;;;-0.50;72.75;100772.66;4224343;28;20227;-66
2023/04/05 07:13:21;;;;;;;51.77;19.27;;;;;;;-0.52;71.93;100776.34;4227868;28;20857;-65
2023/04/05 07:15:47;;;;;;;48.63;18.13;;;;;;;-0.45;72.64;100780.44;4219344;28;20895;-66
2023/04/05 07:18:14;;;;;;;48.73;18.77;;;;;;;-0.26;72.19;100776.94;4227351;28;20236;-66
2023/04/05 07:20:41;;;;;;;64.17;23.53;;;;;;;-0.14;70.93;100775.53;4227439;28;20231;-67
2023/04/05 07:23:08;;;;;;;45.47;17.33;;;;;;;-0.18;70.39;100777.47;4226641;28;22296;-67
2023/04/05 07:25:35;;;;;;;43.37;17.10;;;;;;;-0.03;70.37;100782.09;4222427;28;21771;-65
2023/04/05 07:28:01;;;;;;;36.93;15.23;;;;;;;-0.08;71.21;100781.44;4221052;28;21194;-66
2023/04/05 07:30:30;;;;;;;39.97;15.63;;;;;;;-0.24;70.96;100780.41;4217591;28;20463;-64
2023/04/05 07:32:57;;;;;;;41.40;14.90;;;;;;;-0.12;70.68;100778.97;4224109;28;23321;-64
2023/04/05 07:35:24;;;;;;;32.13;13.40;;;;;;;0.21;69.89;100784.53;4221857;28;20231;-64
2023/04/05 07:37:51;;;;;;;37.17;14.03;;;;;;;0.03;69.68;100783.59;4204175;28;21673;-64
2023/04/05 07:40:17;;;;;;;34.73;13.40;;;;;;;0.09;70.44;100780.66;4231430;28;21136;-63
2023/04/05 07:42:44;;;;;;;30.00;12.43;;;;;;;0.11;69.86;100783.25;4221022;28;20507;-64
2023/04/05 07:45:13;;;;;;;34.00;11.87;;;;;;;-0.10;70.72;100788.63;4222380;28;21726;-61
2023/04/05 07:47:39;;;;;;;31.90;11.93;;;;;;;0.20;70.06;100788.13;4228638;28;20239;-65
2023/04/05 07:50:08;;;;;;;31.20;13.57;;;;;;;0.31;69.43;100790.28;4237162;28;20246;-63
2023/04/05 07:52:35;;;;;;;26.47;12.03;;;;;;;0.61;68.79;100784.41;4223656;28;22953;-65
2023/04/05 07:55:03;;;;;;;31.10;12.90;;;;;;;0.30;69.13;100783.25;4222938;28;20247;-68
2023/04/05 07:57:30;;;;;;;31.40;12.53;;;;;;;0.52;68.92;100790.22;4227425;28;20295;-68
2023/04/05 07:59:56;;;;;;;26.33;11.73;;;;;;;0.28;69.34;100790.44;4223384;28;20550;-66
2023/04/05 08:02:23;;;;;;;33.53;11.03;;;;;;;0.58;68.89;100792.56;4223792;28;20231;-64
2023/04/05 08:04:50;;;;;;;27.03;11.43;;;;;;;0.44;68.45;100791.44;4229047;28;20614;-66
2023/04/05 08:07:16;;;;;;;26.37;11.30;;;;;;;0.61;68.18;100789.75;4217187;28;20256;-69
2023/04/05 08:09:43;;;;;;;29.43;11.17;;;;;;;0.53;68.85;100790.13;4220636;28;21330;-68
2023/04/05 08:12:10;;;;;;;32.83;12.30;;;;;;;0.56;68.19;100791.78;4210995;28;20496;-65
2023/04/05 08:14:37;;;;;;;29.93;11.80;;;;;;;0.73;68.21;100785.63;4215967;28;20305;-67
2023/04/05 08:17:03;;;;;;;27.10;10.73;;;;;;;0.38;68.83;100788.22;4217093;28;20957;-66
2023/04/05 08:19:30;;;;;;;29.67;10.93;;;;;;;0.21;69.18;100792.53;4232813;28;20283;-66
2023/04/05 08:21:57;;;;;;;26.13;9.83;;;;;;;0.55;68.26;100780.28;4223504;28;20237;-66
2023/04/05 08:24:23;;;;;;;29.00;11.27;;;;;;;0.83;67.61;100789.56;4237667;28;20583;-67
2023/04/05 08:26:50;;;;;;;35.17;11.33;;;;;;;0.67;68.49;100785.94;4224030;28;20895;-67
2023/04/05 08:29:17;;;;;;;31.03;10.73;;;;;;;0.62;67.80;100791.47;4227740;28;20937;-66
2023/04/05 08:31:43;;;;;;;23.80;10.47;;;;;;;0.68;68.28;100780.50;4228029;28;20269;-64
2023/04/05 08:34:10;;;;;;;35.40;10.30;;;;;;;0.56;68.23;100789.13;4240261;28;20238;-67
2023/04/05 08:36:37;;;;;;;24.63;8.73;;;;;;;0.60;68.76;100791.56;4208814;28;22681;-66
2023/04/05 08:39:03;;;;;;;27.83;10.17;;;;;;;0.76;67.26;100790.81;4226753;28;20311;-67
2023/04/05 08:41:35;;;;;;;26.90;10.50;;;;;;;0.65;68.07;100791.34;4215653;28;21710;-71
2023/04/05 08:44:08;;;;;;;35.03;11.37;;;;;;;0.56;68.54;100795.31;4236505;28;20597;-67
2023/04/05 08:46:35;;;;;;;38.10;12.07;;;;;;;0.51;68.51;100794.66;4227551;28;20590;-66
2023/04/05 08:49:07;;;;;;;31.80;11.50;;;;;;;0.57;69.25;100780.19;4215330;28;20327;-68
2023/04/05 08:51:37;;;;;;;34.67;11.20;;;;;;;0.67;67.48;100777.94;4226682;28;22863;-68
2023/04/05 08:54:04;;;;;;;25.63;10.50;;;;;;;0.61;68.34;100776.44;4205095;28;21764;-66
2023/04/05 08:56:32;;;;;;;30.70;11.47;;;;;;;1.10;67.16;100786.44;4213213;28;20240;-67
2023/04/05 08:59:06;;;;;;;25.97;9.00;;;;;;;1.09;66.62;100792.75;4225245;28;20502;-65
2023/04/05 09:01:37;;;;;;;21.97;8.73;;;;;;;0.72;67.09;100784.78;4207409;28;20238;-65
2023/04/05 09:04:23;;;;;;;25.60;10.30;;;;;;;0.85;66.98;100790.38;4209133;28;20235;-66
2023/04/05 09:06:51;;;;;;;25.63;8.73;;;;;;;0.90;66.70;100788.31;4242595;28;20231;-66
2023/04/05 09:09:19;;;;;;;24.33;9.50;;;;;;;1.03;66.53;100785.03;4232574;28;23465;-66
2023/04/05 09:11:47;;;;;;;25.20;9.23;;;;;;;1.15;65.59;100787.09;4225363;28;20591;-67
2023/04/05 09:14:13;;;;;;;27.40;9.73;;;;;;;0.98;65.07;100787.94;4217031;28;20400;-65
2023/04/05 09:16:41;;;;;;;30.83;9.83;;;;;;;0.86;66.17;100789.44;4214087;28;20589;-63
2023/04/05 09:19:09;;;;;;;24.43;9.20;;;;;;;0.84;66.36;100790.41;4238640;28;22060;-63
2023/04/05 09:22:04;;;;;;;20.37;8.87;;;;;;;0.86;66.93;100792.09;4211060;28;21763;-63
2023/04/05 09:24:41;;;;;;;23.43;9.13;;;;;;;0.67;67.47;100789.47;4230584;28;20327;-65
2023/04/05 09:27:10;;;;;;;16.83;7.70;;;;;;;0.88;65.92;100784.00;4251176;28;21547;-65
2023/04/05 09:29:39;;;;;;;17.10;6.97;;;;;;;1.36;64.13;100787.78;4240164;28;21808;-63
2023/04/05 09:32:07;;;;;;;24.83;7.90;;;;;;;1.62;62.50;100788.22;4248187;28;20651;-66
2023/04/05 09:34:37;;;;;;;20.47;7.77;;;;;;;1.45;63.76;100783.78;4225828;28;20232;-65
2023/04/05 09:37:15;;;;;;;24.00;7.87;;;;;;;1.20;63.29;100793.03;4241185;28;20235;-62
2023/04/05 09:39:42;;;;;;;18.50;7.67;;;;;;;1.18;63.66;100797.59;4249764;28;20387;-64
2023/04/05 09:42:14;;;;;;;17.57;7.10;;;;;;;0.99;63.71;100779.00;4260563;28;20296;-63
2023/04/05 09:45:01;;;;;;;21.43;7.30;;;;;;;1.62;62.56;100790.03;4249660;28;20304;-63
2023/04/05 09:47:31;;;;;;;21.57;6.60;;;;;;;1.97;60.37;100795.28;4250052;28;20223;-64
2023/04/05 09:50:06;;;;;;;13.00;5.63;;;;;;;2.32;59.18;100792.47;4243660;28;20246;-64
2023/04/05 09:52:35;;;;;;;15.10;5.43;;;;;;;2.57;57.84;100783.94;4229998;28;20629;-63
2023/04/05 09:55:05;;;;;;;14.80;5.77;;;;;;;3.01;56.39;100788.56;4218446;28;20433;-63
2023/04/05 09:57:39;;;;;;;17.97;4.87;;;;;;;3.13;55.11;100786.97;4218861;28;21323;-63
2023/04/05 10:00:16;;;;;;;17.10;5.27;;;;;;;2.29;56.31;100793.50;4232638;28;20936;-63
2023/04/05 10:02:46;;;;;;;14.23;4.47;;;;;;;2.37;56.48;100788.59;4239557;28;23072;-63
2023/04/05 10:05:14;;;;;;;12.10;5.37;;;;;;;2.38;56.84;100786.78;4231795;28;20228;-63
2023/04/05 10:07:42;;;;;;;9.70;4.53;;;;;;;2.57;54.81;100793.78;4232794;28;20240;-64
2023/04/05 10:10:11;;;;;;;13.97;4.50;;;;;;;3.14;54.04;100774.44;4233631;28;21089;-67
2023/04/05 10:12:40;;;;;;;11.57;4.37;;;;;;;3.42;52.29;100783.47;4245304;28;20298;-65
2023/04/05 10:15:08;;;;;;;10.07;4.20;;;;;;;3.09;53.26;100777.38;4261550;28;20232;-66
2023/04/05 10:18:06;;;;;;;10.43;4.27;;;;;;;2.78;54.03;100781.84;4332635;28;20228;-47
2023/04/05 10:20:34;;;;;;;14.83;4.80;;;;;;;3.30;51.59;100777.06;4225403;28;22920;-66
2023/04/05 10:23:09;;;;;;;13.87;4.23;;;;;;;3.52;51.86;100781.97;4215762;28;20241;-64
2023/04/05 10:26:04;;;;;;;9.00;4.17;;;;;;;2.87;53.02;100776.91;4219590;28;20304;-63
2023/04/05 10:28:34;;;;;;;11.00;4.07;;;;;;;3.08;51.53;100756.94;4230518;28;20255;-63
2023/04/05 10:31:19;;;;;;;7.70;3.57;;;;;;;2.64;50.86;100776.44;4289087;28;23063;-66
2023/04/05 10:34:36;;;;;;;12.07;4.10;;;;;;;2.86;50.67;100762.72;4245823;28;20618;-62
2023/04/05 10:37:04;;;;;;;13.37;4.70;;;;;;;3.68;49.20;100764.97;4237430;28;21159;-63
2023/04/05 10:39:40;;;;;;;10.90;3.93;;;;;;;3.96;48.34;100772.16;4250260;28;20226;-64
2023/04/05 10:42:14;;;;;;;9.73;3.97;;;;;;;3.50;49.33;100767.81;4234375;28;20239;-63
2023/04/05 10:44:42;;;;;;;9.77;3.70;;;;;;;3.62;49.11;100772.44;4240039;28;20633;-64
2023/04/05 10:47:14;;;;;;;8.30;3.47;;;;;;;3.32;49.14;100764.44;4260271;28;20239;-63
2023/04/05 10:49:47;;;;;;;7.53;3.57;;;;;;;3.01;50.13;100767.16;4233247;28;21215;-64
2023/04/05 10:52:15;;;;;;;10.37;3.70;;;;;;;3.43;48.29;100769.16;4244434;28;20239;-65
2023/04/05 10:54:42;;;;;;;8.27;3.53;;;;;;;3.57;47.14;100760.28;4246829;28;20233;-63
2023/04/05 10:57:09;;;;;;;10.07;3.67;;;;;;;3.72;47.37;100758.47;4233246;28;21156;-65
2023/04/05 10:59:41;;;;;;;6.97;3.20;;;;;;;3.90;47.30;100751.97;4241267;28;25689;-64
2023/04/05 11:02:09;;;;;;;7.63;3.53;;;;;;;3.92;46.56;100754.53;4249716;28;20302;-64
2023/04/05 11:04:36;;;;;;;7.43;3.20;;;;;;;3.61;47.63;100751.97;4242947;28;20236;-64
2023/04/05 11:07:17;;;;;;;9.97;3.70;;;;;;;3.72;47.30;100753.09;4248527;28;25886;-64
2023/04/05 11:10:00;;;;;;;10.07;3.93;;;;;;;3.40;48.35;100747.94;4236679;28;25605;-63
2023/04/05 11:12:52;;;;;;;8.77;3.50;;;;;;;3.67;48.07;100755.22;4233467;28;20233;-63
2023/04/05 11:15:26;;;;;;;10.10;3.70;;;;;;;3.40;48.61;100743.44;4240881;28;21298;-64
2023/04/05 11:18:11;;;;;;;8.40;3.40;;;;;;;2.87;49.26;100756.38;4249644;28;20571;-68
2023/04/05 11:20:46;;;;;;;7.10;3.07;;;;;;;3.44;47.20;100750.31;4233049;28;20247;-63
2023/04/05 11:23:15;;;;;;;8.43;3.63;;;;;;;3.75;46.86;100747.56;4250848;28;20606;-65